createdAt,value
2023-05-17T00:01:56.670Z,12.57
2023-05-17T00:04:23.435Z,12.50
2023-05-17T00:06:50.132Z,12.33
2023-05-17T00:09:16.883Z,12.13
2023-05-17T00:11:43.618Z,12.35
2023-05-17T00:14:11.485Z,12.41
2023-05-17T00:16:38.824Z,12.60
2023-05-17T00:19:05.638Z,12.40
2023-05-17T00:21:32.421Z,12.27
2023-05-17T00:23:59.144Z,11.98
2023-05-17T00:26:25.797Z,12.02
2023-05-17T00:28:52.541Z,11.93
2023-05-17T00:31:19.193Z,11.67
2023-05-17T00:33:47.689Z,11.77
2023-05-17T00:36:14.379Z,11.99
2023-05-17T00:38:41.065Z,12.06
2023-05-17T00:41:10.075Z,12.18
2023-05-17T00:43:36.807Z,11.85
2023-05-17T00:46:03.489Z,11.63
2023-05-17T00:48:30.245Z,11.98
2023-05-17T00:50:56.965Z,11.89
2023-05-17T00:53:23.653Z,12.08
2023-05-17T00:55:50.622Z,11.84
2023-05-17T00:58:17.270Z,11.91
2023-05-17T01:00:43.988Z,11.84
2023-05-17T01:03:10.811Z,11.73
2023-05-17T01:05:37.494Z,12.00
2023-05-17T01:08:04.328Z,12.03
2023-05-17T01:10:58.475Z,12.19
2023-05-17T01:13:37.123Z,12.26
2023-05-17T01:16:21.449Z,12.28
2023-05-17T01:19:03.494Z,12.33
2023-05-17T01:21:44.210Z,12.56
2023-05-17T01:24:26.335Z,12.61
2023-05-17T01:26:53.436Z,12.89
2023-05-17T01:29:22.361Z,12.95
2023-05-17T01:31:49.485Z,12.87
2023-05-17T01:34:27.907Z,12.96
2023-05-17T01:36:54.834Z,12.97
2023-05-17T01:39:21.600Z,12.84
2023-05-17T01:42:05.385Z,12.95
2023-05-17T01:44:37.141Z,12.91
2023-05-17T01:47:12.864Z,12.96
2023-05-17T01:49:40.105Z,12.75
2023-05-17T01:52:19.149Z,12.75
2023-05-17T01:54:45.839Z,12.83
2023-05-17T01:57:12.586Z,12.92
2023-05-17T01:59:39.411Z,12.74
2023-05-17T02:02:07.432Z,12.98
2023-05-17T02:04:34.192Z,12.90
2023-05-17T02:07:00.934Z,12.93
2023-05-17T02:09:27.591Z,12.84
2023-05-17T02:11:54.369Z,12.83
2023-05-17T02:14:21.051Z,12.58
2023-05-17T02:16:47.719Z,12.64
2023-05-17T02:19:15.260Z,12.62
2023-05-17T02:21:42.005Z,12.70
2023-05-17T02:24:08.730Z,12.76
2023-05-17T02:26:35.523Z,12.83
2023-05-17T02:29:02.289Z,12.74
2023-05-17T02:31:29.050Z,12.87
2023-05-17T02:33:55.938Z,12.85
2023-05-17T02:36:22.680Z,12.89
2023-05-17T02:38:49.421Z,12.81
2023-05-17T02:41:16.122Z,12.71
2023-05-17T02:43:42.931Z,12.70
2023-05-17T02:46:09.637Z,12.75
2023-05-17T02:48:36.413Z,12.83
2023-05-17T02:51:03.221Z,12.73
2023-05-17T02:53:30.072Z,12.70
2023-05-17T02:55:58.173Z,12.70
2023-05-17T02:58:25.531Z,12.60
2023-05-17T03:00:52.268Z,12.57
2023-05-17T03:03:19.051Z,12.53
2023-05-17T03:05:45.953Z,12.50
2023-05-17T03:08:12.568Z,12.56
2023-05-17T03:10:39.233Z,12.22
2023-05-17T03:13:06.060Z,12.34
2023-05-17T03:15:32.769Z,12.29
2023-05-17T03:17:59.796Z,12.19
2023-05-17T03:20:26.468Z,12.38
2023-05-17T03:22:53.146Z,12.14
2023-05-17T03:25:19.830Z,12.22
2023-05-17T03:27:46.622Z,12.08
2023-05-17T03:30:13.474Z,12.22
2023-05-17T03:32:40.553Z,12.25
2023-05-17T03:35:08.375Z,11.98
2023-05-17T03:37:35.064Z,11.91
2023-05-17T03:40:01.735Z,12.06
2023-05-17T03:42:28.378Z,12.22
2023-05-17T03:44:55.028Z,12.43
2023-05-17T03:47:24.096Z,12.48
2023-05-17T03:49:51.467Z,12.30
2023-05-17T03:52:18.212Z,12.42
2023-05-17T03:54:46.315Z,12.59
2023-05-17T03:57:14.921Z,12.54
2023-05-17T03:59:41.589Z,12.41
2023-05-17T04:02:08.345Z,12.26
2023-05-17T04:04:34.998Z,12.32
2023-05-17T04:07:02.289Z,12.14
2023-05-17T04:09:31.138Z,12.42
2023-05-17T04:11:57.838Z,12.46
2023-05-17T04:14:24.462Z,12.42
2023-05-17T04:16:51.399Z,12.59
2023-05-17T04:19:18.328Z,12.58
2023-05-17T04:21:45.911Z,12.61
2023-05-17T04:24:12.532Z,12.65
2023-05-17T04:26:39.949Z,12.62
2023-05-17T04:29:06.941Z,12.68
2023-05-17T04:31:34.342Z,12.59
2023-05-17T04:34:01.206Z,12.65
2023-05-17T04:36:27.994Z,12.80
2023-05-17T04:38:54.820Z,12.56
2023-05-17T04:41:21.496Z,12.55
2023-05-17T04:43:48.294Z,12.53
2023-05-17T04:46:15.077Z,12.71
2023-05-17T04:48:42.156Z,12.69
2023-05-17T04:51:09.015Z,12.53
2023-05-17T04:53:35.730Z,12.62
2023-05-17T04:56:02.475Z,12.68
2023-05-17T04:58:29.090Z,12.82
2023-05-17T05:00:56.400Z,12.77
2023-05-17T05:03:23.232Z,12.95
2023-05-17T05:05:49.972Z,12.74
2023-05-17T05:08:17.726Z,12.64
2023-05-17T05:10:44.491Z,12.73
2023-05-17T05:13:11.575Z,12.83
2023-05-17T05:15:38.305Z,12.84
2023-05-17T05:18:05.153Z,12.89
2023-05-17T05:20:31.979Z,12.99
2023-05-17T05:22:59.165Z,12.84
2023-05-17T05:25:25.904Z,12.49
2023-05-17T05:27:52.686Z,12.70
2023-05-17T05:30:22.518Z,12.87
2023-05-17T05:32:50.549Z,12.75
2023-05-17T05:35:17.502Z,12.55
2023-05-17T05:37:44.470Z,12.94
2023-05-17T05:40:11.684Z,13.09
2023-05-17T05:42:38.465Z,13.09
2023-05-17T05:45:05.606Z,13.07
2023-05-17T05:47:32.403Z,12.99
2023-05-17T05:49:59.173Z,13.03
2023-05-17T05:52:25.927Z,12.95
2023-05-17T05:54:52.616Z,13.14
2023-05-17T05:57:19.472Z,12.72
2023-05-17T05:59:46.168Z,12.60
2023-05-17T06:02:13.215Z,12.44
2023-05-17T06:04:45.029Z,12.48
2023-05-17T06:07:13.577Z,12.37
2023-05-17T06:09:40.463Z,12.32
2023-05-17T06:12:07.285Z,12.04
2023-05-17T06:14:34.053Z,12.21
2023-05-17T06:17:00.713Z,12.45
2023-05-17T06:19:27.502Z,12.74
2023-05-17T06:21:54.290Z,12.75
2023-05-17T06:24:20.964Z,13.05
2023-05-17T06:26:48.558Z,12.72
2023-05-17T06:29:15.691Z,12.97
2023-05-17T06:31:42.425Z,12.80
2023-05-17T06:34:09.250Z,13.20
2023-05-17T06:36:37.604Z,12.98
2023-05-17T06:39:05.441Z,13.18
2023-05-17T06:41:32.186Z,13.18
2023-05-17T06:43:58.812Z,13.44
2023-05-17T06:46:25.650Z,13.59
2023-05-17T06:48:52.488Z,13.39
2023-05-17T06:51:19.283Z,13.69
2023-05-17T06:53:46.075Z,13.66
2023-05-17T06:56:12.846Z,13.25
2023-05-17T06:58:39.560Z,13.30
2023-05-17T07:01:06.258Z,13.33
2023-05-17T07:03:33.057Z,13.13
2023-05-17T07:05:59.982Z,13.28
2023-05-17T07:08:27.555Z,13.56
2023-05-17T07:10:54.339Z,13.92
2023-05-17T07:13:21.175Z,14.12
2023-05-17T07:15:48.026Z,14.26
2023-05-17T07:18:15.306Z,14.31
2023-05-17T07:20:42.166Z,14.22
2023-05-17T07:23:08.927Z,14.37
2023-05-17T07:25:38.830Z,14.46
2023-05-17T07:28:05.793Z,14.55
2023-05-17T07:30:32.462Z,14.65
2023-05-17T07:32:59.273Z,14.83
2023-05-17T07:35:26.107Z,14.99
2023-05-17T07:37:52.810Z,15.05
2023-05-17T07:40:19.457Z,14.95
2023-05-17T07:42:46.179Z,14.93
2023-05-17T07:45:12.891Z,14.99
2023-05-17T07:47:39.811Z,15.16
2023-05-17T07:50:07.328Z,15.22
2023-05-17T07:52:34.140Z,15.07
2023-05-17T07:55:00.905Z,15.10
2023-05-17T07:57:27.669Z,15.12
2023-05-17T07:59:54.412Z,15.15
2023-05-17T08:02:21.023Z,14.92
2023-05-17T08:04:47.772Z,14.87
2023-05-17T08:07:14.695Z,14.86
2023-05-17T08:09:44.244Z,14.88
2023-05-17T08:12:11.225Z,15.12
2023-05-17T08:14:39.302Z,14.99
2023-05-17T08:17:06.107Z,15.23
2023-05-17T08:19:33.265Z,15.04
2023-05-17T08:22:00.088Z,14.93
2023-05-17T08:24:26.705Z,14.85
2023-05-17T08:26:53.442Z,15.12
2023-05-17T08:29:20.200Z,14.99
2023-05-17T08:31:46.878Z,14.91
2023-05-17T08:34:13.632Z,14.84
2023-05-17T08:36:40.394Z,14.91
2023-05-17T08:39:08.601Z,15.05
2023-05-17T08:41:38.518Z,14.96
2023-05-17T08:44:06.473Z,15.03
2023-05-17T08:46:33.617Z,15.23
2023-05-17T08:49:02.183Z,15.17
2023-05-17T08:51:29.052Z,15.11
2023-05-17T08:53:56.207Z,15.25
2023-05-17T08:56:23.540Z,15.32
2023-05-17T08:58:57.117Z,15.41
2023-05-17T09:01:26.423Z,15.29
2023-05-17T09:03:54.526Z,15.57
2023-05-17T09:06:21.799Z,15.62
2023-05-17T09:08:52.917Z,15.51
2023-05-17T09:11:27.925Z,15.38
2023-05-17T09:13:57.970Z,15.36
2023-05-17T09:16:25.139Z,15.47
2023-05-17T09:18:56.394Z,15.36
2023-05-17T09:21:23.948Z,15.39
2023-05-17T09:24:05.594Z,15.27
2023-05-17T09:26:41.774Z,15.34
2023-05-17T09:29:09.990Z,15.16
2023-05-17T09:31:36.740Z,15.24
2023-05-17T09:34:03.609Z,15.19
2023-05-17T09:36:30.500Z,15.16
2023-05-17T09:38:59.360Z,15.29
2023-05-17T09:41:27.394Z,15.21
2023-05-17T09:43:56.020Z,14.95
2023-05-17T09:46:22.660Z,14.86
2023-05-17T09:48:56.471Z,14.84
2023-05-17T09:51:33.987Z,14.82
2023-05-17T09:54:00.852Z,14.88
2023-05-17T09:56:30.788Z,14.91
2023-05-17T09:58:59.242Z,14.92
2023-05-17T10:01:27.047Z,15.05
2023-05-17T10:03:53.907Z,14.97
2023-05-17T10:06:38.463Z,14.92
2023-05-17T10:09:10.534Z,15.38
2023-05-17T10:11:37.661Z,15.54
2023-05-17T10:14:18.561Z,15.48
2023-05-17T10:16:45.400Z,15.72
2023-05-17T10:19:12.257Z,15.82
2023-05-17T10:21:39.424Z,15.77
2023-05-17T10:24:06.418Z,16.02
2023-05-17T10:26:33.077Z,16.45
2023-05-17T10:29:01.730Z,15.98
2023-05-17T10:31:36.557Z,16.07
2023-05-17T10:34:05.333Z,16.25
2023-05-17T10:36:32.347Z,16.32
2023-05-17T10:38:59.289Z,16.44
2023-05-17T10:41:27.737Z,16.74
2023-05-17T10:43:54.742Z,16.86
2023-05-17T10:46:22.411Z,16.85
2023-05-17T10:48:52.888Z,16.99
2023-05-17T10:51:36.665Z,16.80
2023-05-17T10:54:11.024Z,17.03
2023-05-17T10:56:57.721Z,17.12
2023-05-17T10:59:28.096Z,16.98
2023-05-17T11:01:59.525Z,17.11
2023-05-17T11:04:27.875Z,17.33
2023-05-17T11:07:15.258Z,17.55
2023-05-17T11:09:42.303Z,17.73
2023-05-17T11:12:09.601Z,17.71
2023-05-17T11:14:45.289Z,17.74
2023-05-17T11:17:19.710Z,17.88
2023-05-17T11:20:13.795Z,17.74
2023-05-17T11:22:51.164Z,17.78
2023-05-17T11:25:17.925Z,17.36
2023-05-17T11:27:49.217Z,17.31
2023-05-17T11:30:26.860Z,17.05
2023-05-17T11:32:54.847Z,16.89
2023-05-17T11:35:24.325Z,16.98
2023-05-17T11:37:54.325Z,17.00
2023-05-17T11:40:31.217Z,16.89
2023-05-17T11:43:19.307Z,16.86
2023-05-17T11:45:48.535Z,16.62
2023-05-17T11:48:17.154Z,16.43
2023-05-17T11:50:45.059Z,16.38
2023-05-17T11:53:11.898Z,16.22
2023-05-17T11:55:42.492Z,16.13
2023-05-17T11:58:10.022Z,16.04
2023-05-17T12:00:38.918Z,15.85
2023-05-17T12:03:22.019Z,16.03
2023-05-17T12:05:49.900Z,16.06
2023-05-17T12:08:18.138Z,16.15
2023-05-17T12:10:54.034Z,16.13
2023-05-17T12:13:20.910Z,16.13
2023-05-17T12:15:57.899Z,16.25
2023-05-17T12:18:35.539Z,16.53
2023-05-17T12:21:02.715Z,16.47
2023-05-17T12:23:31.182Z,16.36
2023-05-17T12:26:05.308Z,16.11
2023-05-17T12:28:32.075Z,16.23
2023-05-17T12:31:01.143Z,16.26
2023-05-17T12:33:28.009Z,15.88
2023-05-17T12:35:54.883Z,16.03
2023-05-17T12:38:21.576Z,16.09
2023-05-17T12:40:48.267Z,15.90
2023-05-17T12:43:15.057Z,16.16
2023-05-17T12:45:42.213Z,16.12
2023-05-17T12:48:08.980Z,16.31
2023-05-17T12:50:35.742Z,16.55
2023-05-17T12:53:08.281Z,16.84
2023-05-17T12:55:36.902Z,16.13
2023-05-17T12:58:04.681Z,16.20
2023-05-17T13:00:31.838Z,16.26
2023-05-17T13:02:58.675Z,16.42
2023-05-17T13:05:25.613Z,16.16
2023-05-17T13:07:53.358Z,16.20
2023-05-17T13:10:29.619Z,16.33
2023-05-17T13:12:59.685Z,16.24
2023-05-17T13:15:30.316Z,16.07
2023-05-17T13:17:57.274Z,16.03
2023-05-17T13:20:24.080Z,15.79
2023-05-17T13:22:51.135Z,15.95
2023-05-17T13:25:17.911Z,15.97
2023-05-17T13:27:48.581Z,15.91
2023-05-17T13:30:16.633Z,15.92
2023-05-17T13:32:44.364Z,16.09
2023-05-17T13:35:11.490Z,16.36
2023-05-17T13:37:38.224Z,16.53
2023-05-17T13:40:05.498Z,16.48
2023-05-17T13:42:32.291Z,16.35
2023-05-17T13:44:58.980Z,16.35
2023-05-17T13:47:26.196Z,16.41
2023-05-17T13:49:53.097Z,16.02
2023-05-17T13:52:19.810Z,16.05
2023-05-17T13:54:46.985Z,16.12
2023-05-17T13:57:13.715Z,16.07
2023-05-17T13:59:40.538Z,15.94
2023-05-17T14:02:09.184Z,15.81
2023-05-17T14:04:35.847Z,16.00
2023-05-17T14:07:03.649Z,15.95
2023-05-17T14:09:33.977Z,15.80
2023-05-17T14:12:01.622Z,15.23
2023-05-17T14:14:28.979Z,15.35
2023-05-17T14:16:55.932Z,15.43
2023-05-17T14:19:22.848Z,15.45
2023-05-17T14:21:50.372Z,15.60
2023-05-17T14:24:17.037Z,15.55
2023-05-17T14:26:44.260Z,15.39
2023-05-17T14:29:11.133Z,15.40
2023-05-17T14:31:37.861Z,15.66
2023-05-17T14:34:04.783Z,15.69
2023-05-17T14:36:31.973Z,15.65
2023-05-17T14:38:59.363Z,15.38
2023-05-17T14:41:26.419Z,15.38
2023-05-17T14:43:53.118Z,15.18
2023-05-17T14:46:19.842Z,15.33
2023-05-17T14:48:46.862Z,15.37
2023-05-17T14:51:13.617Z,15.13
2023-05-17T14:53:40.511Z,14.96
2023-05-17T14:56:07.762Z,14.65
2023-05-17T14:58:34.501Z,14.84
2023-05-17T15:01:05.447Z,15.24
2023-05-17T15:03:33.775Z,15.34
2023-05-17T15:06:02.054Z,15.39
2023-05-17T15:08:30.085Z,15.34
2023-05-17T15:10:57.950Z,15.37
2023-05-17T15:13:25.190Z,15.33
2023-05-17T15:15:53.082Z,15.20
2023-05-17T15:18:20.424Z,14.58
2023-05-17T15:20:47.240Z,14.14
2023-05-17T15:23:13.948Z,13.29
2023-05-17T15:25:41.129Z,13.24
2023-05-17T15:28:07.823Z,13.25
2023-05-17T15:30:34.442Z,13.16
2023-05-17T15:33:01.391Z,13.30
2023-05-17T15:35:29.045Z,12.99
2023-05-17T15:37:57.973Z,12.60
2023-05-17T15:40:25.102Z,12.44
2023-05-17T15:42:52.593Z,11.96
2023-05-17T15:45:21.484Z,12.18
2023-05-17T15:47:49.617Z,12.25
2023-05-17T15:50:16.787Z,12.26
2023-05-17T15:52:43.651Z,12.07
2023-05-17T15:55:10.927Z,12.07
2023-05-17T15:57:37.732Z,12.38
2023-05-17T16:00:05.108Z,12.54
2023-05-17T16:02:31.826Z,12.57
2023-05-17T16:05:00.613Z,12.28
2023-05-17T16:07:29.380Z,12.50
2023-05-17T16:09:56.109Z,12.48
2023-05-17T16:12:22.731Z,12.61
2023-05-17T16:14:49.472Z,12.75
2023-05-17T16:17:16.268Z,12.74
2023-05-17T16:19:43.050Z,12.41
2023-05-17T16:22:09.780Z,12.35
2023-05-17T16:24:36.644Z,12.38
2023-05-17T16:27:05.688Z,12.44
2023-05-17T16:29:39.782Z,12.71
2023-05-17T16:32:07.776Z,12.42
2023-05-17T16:34:34.483Z,12.46
2023-05-17T16:37:01.285Z,12.77
2023-05-17T16:39:28.862Z,12.66
2023-05-17T16:41:55.898Z,12.92
2023-05-17T16:44:22.542Z,13.13
2023-05-17T16:46:49.398Z,13.16
2023-05-17T16:49:16.180Z,13.31
2023-05-17T16:51:42.918Z,13.40
2023-05-17T16:54:09.648Z,13.37
2023-05-17T16:56:36.690Z,13.42
2023-05-17T16:59:03.544Z,13.36
2023-05-17T17:01:30.372Z,13.50
2023-05-17T17:03:57.225Z,13.30
2023-05-17T17:06:23.983Z,13.06
2023-05-17T17:08:50.703Z,12.96
2023-05-17T17:11:18.898Z,12.88
2023-05-17T17:13:45.680Z,12.82
2023-05-17T17:16:12.353Z,12.66
2023-05-17T17:18:39.141Z,12.77
2023-05-17T17:21:07.852Z,12.74
2023-05-17T17:23:34.942Z,12.84
2023-05-17T17:26:01.660Z,12.85
2023-05-17T17:28:28.711Z,12.61
2023-05-17T17:30:55.403Z,12.60
2023-05-17T17:33:22.335Z,12.37
2023-05-17T17:35:50.439Z,12.25
2023-05-17T17:38:17.152Z,12.26
2023-05-17T17:40:43.963Z,12.21
2023-05-17T17:43:10.692Z,12.32
2023-05-17T17:45:37.495Z,12.30
2023-05-17T17:48:04.284Z,12.27
2023-05-17T17:50:31.573Z,12.27
2023-05-17T17:52:58.900Z,12.23
2023-05-17T17:55:25.688Z,12.36
2023-05-17T17:57:52.422Z,12.25
2023-05-17T18:00:19.476Z,12.44
2023-05-17T18:02:46.391Z,12.25
2023-05-17T18:05:13.135Z,12.33
2023-05-17T18:07:39.922Z,12.34
2023-05-17T18:10:07.127Z,12.24
2023-05-17T18:12:33.922Z,12.31
2023-05-17T18:15:00.740Z,12.44
2023-05-17T18:17:28.567Z,12.43
2023-05-17T18:19:55.303Z,12.37
2023-05-17T18:22:22.005Z,12.18
2023-05-17T18:24:49.438Z,12.21
2023-05-17T18:27:16.856Z,12.26
2023-05-17T18:29:43.708Z,12.12
2023-05-17T18:32:10.450Z,12.08
2023-05-17T18:34:37.498Z,12.15
2023-05-17T18:37:04.504Z,12.12
2023-05-17T18:39:31.528Z,12.27
2023-05-17T18:41:58.234Z,12.17
2023-05-17T18:44:24.904Z,12.06
2023-05-17T18:46:51.754Z,12.11
2023-05-17T18:49:18.584Z,12.18
2023-05-17T18:51:45.734Z,12.40
2023-05-17T18:54:12.481Z,12.34
2023-05-17T18:56:39.274Z,12.23
2023-05-17T18:59:06.200Z,12.27
2023-05-17T19:01:32.973Z,12.30
2023-05-17T19:03:59.937Z,12.14
2023-05-17T19:06:29.747Z,11.88
2023-05-17T19:08:58.537Z,11.79
2023-05-17T19:11:26.480Z,12.05
2023-05-17T19:13:53.464Z,12.20
2023-05-17T19:16:20.103Z,12.26
2023-05-17T19:18:46.789Z,12.27
2023-05-17T19:21:13.566Z,12.31
2023-05-17T19:23:40.371Z,12.17
2023-05-17T19:26:07.085Z,12.30
2023-05-17T19:28:35.767Z,12.26
2023-05-17T19:31:03.427Z,12.23
2023-05-17T19:33:31.996Z,11.89
2023-05-17T19:35:58.789Z,11.77
2023-05-17T19:38:25.611Z,11.89
2023-05-17T19:40:52.376Z,12.07
2023-05-17T19:43:19.096Z,12.13
2023-05-17T19:45:45.883Z,12.14
2023-05-17T19:48:12.544Z,12.19
2023-05-17T19:50:39.273Z,12.11
2023-05-17T19:53:06.037Z,12.27
2023-05-17T19:55:34.401Z,12.24
2023-05-17T19:58:01.296Z,12.15
2023-05-17T20:00:28.135Z,12.07
2023-05-17T20:02:55.070Z,11.85
2023-05-17T20:05:21.887Z,11.97
2023-05-17T20:07:48.717Z,12.12
2023-05-17T20:10:15.419Z,12.24
2023-05-17T20:12:42.203Z,12.01
2023-05-17T20:15:09.496Z,11.67
2023-05-17T20:17:36.242Z,11.78
2023-05-17T20:20:03.115Z,11.54
2023-05-17T20:22:29.873Z,11.78
2023-05-17T20:24:57.928Z,11.96
2023-05-17T20:27:25.934Z,12.02
2023-05-17T20:29:52.622Z,12.11
2023-05-17T20:32:19.241Z,11.87
2023-05-17T20:34:45.945Z,11.76
2023-05-17T20:37:12.705Z,11.61
2023-05-17T20:39:39.471Z,11.87
2023-05-17T20:42:07.844Z,11.85
2023-05-17T20:44:34.518Z,11.75
2023-05-17T20:47:01.426Z,11.44
2023-05-17T20:49:28.173Z,11.40
2023-05-17T20:52:01.199Z,11.84
2023-05-17T20:54:27.853Z,11.97
2023-05-17T20:56:54.539Z,11.87
2023-05-17T20:59:23.334Z,11.64
2023-05-17T21:01:50.905Z,11.36
2023-05-17T21:04:17.615Z,11.59
2023-05-17T21:06:44.482Z,11.79
2023-05-17T21:09:11.229Z,11.65
2023-05-17T21:11:37.990Z,11.60
2023-05-17T21:14:04.709Z,11.76
2023-05-17T21:16:31.400Z,11.65
2023-05-17T21:18:58.211Z,11.71
2023-05-17T21:21:24.942Z,11.73
2023-05-17T21:23:51.742Z,11.88
2023-05-17T21:26:18.380Z,11.84
2023-05-17T21:28:45.145Z,11.74
2023-05-17T21:31:11.996Z,11.89
2023-05-17T21:33:38.816Z,11.83
2023-05-17T21:36:05.708Z,11.84
2023-05-17T21:38:32.461Z,11.86
2023-05-17T21:40:59.197Z,11.82
2023-05-17T21:43:26.136Z,11.87
2023-05-17T21:45:52.851Z,11.51
2023-05-17T21:48:19.518Z,11.50
2023-05-17T21:50:46.350Z,11.54
2023-05-17T21:53:13.842Z,11.65
2023-05-17T21:55:51.361Z,11.57
2023-05-17T21:58:27.263Z,11.50
2023-05-17T22:00:53.999Z,11.56
2023-05-17T22:03:21.451Z,11.58
2023-05-17T22:05:48.448Z,11.53
2023-05-17T22:08:15.119Z,11.61
2023-05-17T22:10:42.152Z,11.40
2023-05-17T22:13:12.213Z,11.46
2023-05-17T22:15:39.191Z,11.71
2023-05-17T22:18:06.057Z,11.38
2023-05-17T22:20:32.938Z,11.53
2023-05-17T22:22:59.797Z,11.44
2023-05-17T22:25:26.532Z,11.46
2023-05-17T22:27:53.264Z,11.58
2023-05-17T22:30:19.901Z,11.73
2023-05-17T22:32:46.792Z,11.66
2023-05-17T22:35:13.631Z,11.76
2023-05-17T22:37:42.880Z,11.72
2023-05-17T22:40:10.794Z,11.82
2023-05-17T22:42:37.635Z,11.47
2023-05-17T22:45:04.687Z,11.42
2023-05-17T22:47:32.045Z,11.60
2023-05-17T22:50:00.899Z,11.70
2023-05-17T22:52:27.647Z,11.77
2023-05-17T22:54:54.351Z,11.64
2023-05-17T22:57:21.102Z,11.87
2023-05-17T22:59:47.805Z,11.50
2023-05-17T23:02:14.520Z,11.68
2023-05-17T23:04:41.289Z,11.66
2023-05-17T23:07:10.109Z,11.80
2023-05-17T23:09:40.591Z,11.78
2023-05-17T23:12:08.743Z,11.79
2023-05-17T23:14:36.377Z,11.89
2023-05-17T23:17:04.211Z,11.90
2023-05-17T23:19:31.342Z,11.84
2023-05-17T23:21:58.237Z,11.87
2023-05-17T23:24:26.013Z,11.82
2023-05-17T23:26:52.899Z,11.83
2023-05-17T23:29:20.102Z,11.90
2023-05-17T23:31:48.243Z,11.85
2023-05-17T23:34:15.421Z,11.82
2023-05-17T23:36:42.167Z,11.79
2023-05-17T23:39:09.137Z,11.75
2023-05-17T23:41:37.851Z,11.77
2023-05-17T23:44:08.060Z,11.75
2023-05-17T23:46:34.772Z,11.62
2023-05-17T23:49:02.328Z,11.65
2023-05-17T23:51:29.231Z,11.24
2023-05-17T23:53:56.306Z,11.39
2023-05-17T23:56:23.340Z,11.58
2023-05-17T23:58:50.230Z,11.52
